Time;durP1;ratioP1;P1;durP2;ratioP2;P2;SDS_P1;SDS_P2;PMS_P1;PMS_P2;Temp;Humidity;BMP_temperature;BMP_pressure;BME280_temperature;BME280_humidity;BME280_pressure;Samples;Min_cycle;Max_cycle;Signal;HPM_P1;HPM_P2
2022/05/31 00:01:02;;;;;;;;;;;;;;;;;;5012119;28;791;-64
2022/05/31 00:03:28;;;;;;;;;;;;;;;;;;5011985;28;1050;-64
2022/05/31 00:05:53;;;;;;;;;;;;;;;;;;5011592;28;829;-64
2022/05/31 00:08:19;;;;;;;;;;;;;;;;;;5012071;28;896;-64
2022/05/31 00:10:44;;;;;;;;;;;;;;;;;;5011157;28;1197;-64
2022/05/31 00:13:09;;;;;;;;;;;;;;;;;;5012113;28;1955;-64
2022/05/31 00:15:35;;;;;;;;;;;;;;;;;;5011615;28;912;-64
2022/05/31 00:18:00;;;;;;;;;;;;;;;;;;5011504;28;944;-64
2022/05/31 00:20:26;;;;;;;;;;;;;;;;;;5011959;28;912;-64
2022/05/31 00:22:51;;;;;;;;;;;;;;;;;;5011482;28;852;-64
2022/05/31 00:25:17;;;;;;;;;;;;;;;;;;5011833;28;1318;-64
2022/05/31 00:27:42;;;;;;;;;;;;;;;;;;5011562;28;888;-64
2022/05/31 00:30:08;;;;;;;;;;;;;;;;;;5012178;28;865;-64
2022/05/31 00:32:36;;;;;;;;;;;;;;;;;;5012264;28;1958;-64
2022/05/31 00:35:10;;;;;;;;;;;;;;;;;;5011877;28;979;-62
2022/05/31 00:37:35;;;;;;;;;;;;;;;;;;5011643;28;909;-64
2022/05/31 00:40:01;;;;;;;;;;;;;;;;;;5011985;28;996;-64
2022/05/31 00:42:26;;;;;;;;;;;;;;;;;;5011444;28;905;-63
2022/05/31 00:44:52;;;;;;;;;;;;;;;;;;4993736;28;1341;-64
2022/05/31 00:47:25;;;;;;;;;;;;;;;;;;5011462;28;1262;-64
2022/05/31 00:49:54;;;;;;;;;;;;;;;;;;5011432;28;774;-64
2022/05/31 00:52:42;;;;;;;;;;;;;;;;;;5011642;28;1979;-64
2022/05/31 00:55:14;;;;;;;;;;;;;;;;;;5003268;28;1925;-64
2022/05/31 00:57:40;;;;;;;;;;;;;;;;;;5013472;28;906;-64
2022/05/31 01:00:09;;;;;;;;;;;;;;;;;;5015166;28;845;-64
2022/05/31 01:02:35;;;;;;;;;;;;;;;;;;5015680;28;883;-64
2022/05/31 01:05:01;;;;;;;;;;;;;;;;;;5014896;28;787;-64
2022/05/31 01:07:27;;;;;;;;;;;;;;;;;;5015364;28;955;-64
2022/05/31 01:09:53;;;;;;;;;;;;;;;;;;5015134;28;904;-64
2022/05/31 01:12:19;;;;;;;;;;;;;;;;;;5015588;28;1965;-64
2022/05/31 01:14:44;;;;;;;;;;;;;;;;;;5015093;28;986;-64
2022/05/31 01:17:17;;;;;;;;;;;;;;;;;;5015834;28;854;-64
2022/05/31 01:19:56;;;;;;;;;;;;;;;;;;5014973;28;824;-64
2022/05/31 01:22:31;;;;;;;;;;;;;;;;;;5015725;28;781;-62
2022/05/31 01:25:16;;;;;;;;;;;;;;;;;;5015462;28;912;-62
2022/05/31 01:28:20;;;;;;;;;;;;;;;;;;5004622;28;1635;-63
2022/05/31 01:31:01;;;;;;;;;;;;;;;;;;4954670;29;1284;-63
2022/05/31 01:33:33;;;;;;;;;;;;;;;;;;4954939;29;1894;-62
2022/05/31 01:36:01;;;;;;;;;;;;;;;;;;4990853;28;1008;-63
2022/05/31 01:38:32;;;;;;;;;;;;;;;;;;5015998;28;964;-62
2022/05/31 01:41:03;;;;;;;;;;;;;;;;;;5014878;28;944;-63
2022/05/31 01:43:28;;;;;;;;;;;;;;;;;;5015819;28;913;-62
2022/05/31 01:46:04;;;;;;;;;;;;;;;;;;5015415;28;818;-62
2022/05/31 01:48:30;;;;;;;;;;;;;;;;;;4997345;28;1365;-63
2022/05/31 01:50:56;;;;;;;;;;;;;;;;;;5015107;28;886;-61
2022/05/31 01:53:22;;;;;;;;;;;;;;;;;;5015135;28;1906;-63
2022/05/31 01:55:48;;;;;;;;;;;;;;;;;;5014440;28;980;-63
2022/05/31 01:58:17;;;;;;;;;;;;;;;;;;5014633;28;831;-62
2022/05/31 02:00:43;;;;;;;;;;;;;;;;;;5014137;28;959;-62
2022/05/31 02:03:09;;;;;;;;;;;;;;;;;;5014136;28;1062;-62
2022/05/31 02:05:34;;;;;;;;;;;;;;;;;;5014463;28;844;-63
2022/05/31 02:08:02;;;;;;;;;;;;;;;;;;5013574;28;910;-63
2022/05/31 02:10:28;;;;;;;;;;;;;;;;;;5014142;28;880;-62
2022/05/31 02:12:54;;;;;;;;;;;;;;;;;;5013511;28;1969;-62
2022/05/31 02:15:20;;;;;;;;;;;;;;;;;;5014158;28;948;-63
2022/05/31 02:17:45;;;;;;;;;;;;;;;;;;5013651;28;925;-62
2022/05/31 02:20:10;;;;;;;;;;;;;;;;;;5014288;28;810;-63
2022/05/31 02:22:36;;;;;;;;;;;;;;;;;;5013761;28;1118;-63
2022/05/31 02:25:01;;;;;;;;;;;;;;;;;;5013315;28;1079;-63
2022/05/31 02:27:26;;;;;;;;;;;;;;;;;;5013856;28;992;-63
2022/05/31 02:29:51;;;;;;;;;;;;;;;;;;5013746;28;833;-63
2022/05/31 02:32:16;;;;;;;;;;;;;;;;;;5013459;28;1905;-63
2022/05/31 02:34:45;;;;;;;;;;;;;;;;;;5013429;28;1055;-63
2022/05/31 02:37:11;;;;;;;;;;;;;;;;;;5013790;28;1016;-63
2022/05/31 02:39:36;;;;;;;;;;;;;;;;;;5014223;28;876;-63
2022/05/31 02:42:02;;;;;;;;;;;;;;;;;;5013305;28;842;-63
2022/05/31 02:44:27;;;;;;;;;;;;;;;;;;5013843;28;865;-63
2022/05/31 02:46:53;;;;;;;;;;;;;;;;;;5013444;28;1268;-63
2022/05/31 02:49:18;;;;;;;;;;;;;;;;;;5013636;28;885;-63
2022/05/31 02:51:45;;;;;;;;;;;;;;;;;;5013361;28;1962;-63
2022/05/31 02:54:12;;;;;;;;;;;;;;;;;;5013338;28;857;-63
2022/05/31 02:56:38;;;;;;;;;;;;;;;;;;5013655;28;917;-63
2022/05/31 02:59:03;;;;;;;;;;;;;;;;;;5013708;28;862;-63
2022/05/31 03:01:33;;;;;;;;;;;;;;;;;;5013891;28;826;-63
2022/05/31 03:03:58;;;;;;;;;;;;;;;;;;5013401;28;853;-63
2022/05/31 03:06:23;;;;;;;;;;;;;;;;;;5013620;28;940;-63
2022/05/31 03:08:49;;;;;;;;;;;;;;;;;;5012566;28;916;-63
2022/05/31 03:11:17;;;;;;;;;;;;;;;;;;5012588;28;1910;-63
2022/05/31 03:13:44;;;;;;;;;;;;;;;;;;5012781;28;826;-63
2022/05/31 03:16:12;;;;;;;;;;;;;;;;;;5012790;28;822;-63
2022/05/31 03:18:40;;;;;;;;;;;;;;;;;;5012842;28;928;-62
2022/05/31 03:21:09;;;;;;;;;;;;;;;;;;5011270;28;849;-62
2022/05/31 03:23:37;;;;;;;;;;;;;;;;;;5012402;28;918;-63
2022/05/31 03:26:05;;;;;;;;;;;;;;;;;;5011977;28;1003;-62
2022/05/31 03:28:31;;;;;;;;;;;;;;;;;;5012317;28;872;-62
2022/05/31 03:30:57;;;;;;;;;;;;;;;;;;5012223;28;1070;-62
2022/05/31 03:33:22;;;;;;;;;;;;;;;;;;5012228;28;1949;-62
2022/05/31 03:35:47;;;;;;;;;;;;;;;;;;5012025;28;850;-63
2022/05/31 03:38:12;;;;;;;;;;;;;;;;;;4994406;28;917;-63
2022/05/31 03:40:56;;;;;;;;;;;;;;;;;;4995007;28;1395;-63
2022/05/31 03:43:21;;;;;;;;;;;;;;;;;;5012441;28;920;-62
2022/05/31 03:45:46;;;;;;;;;;;;;;;;;;5012268;28;1051;-62
2022/05/31 03:48:12;;;;;;;;;;;;;;;;;;4991142;28;1153;-62
2022/05/31 03:50:41;;;;;;;;;;;;;;;;;;4992826;28;881;-62
2022/05/31 03:53:07;;;;;;;;;;;;;;;;;;4991045;28;2078;-63
2022/05/31 03:55:35;;;;;;;;;;;;;;;;;;4992553;28;986;-62
2022/05/31 03:58:01;;;;;;;;;;;;;;;;;;4992543;28;1074;-62
2022/05/31 04:00:26;;;;;;;;;;;;;;;;;;4992530;28;833;-62
2022/05/31 04:02:51;;;;;;;;;;;;;;;;;;4992191;28;1193;-62
2022/05/31 04:05:17;;;;;;;;;;;;;;;;;;4991026;28;894;-63
2022/05/31 04:07:42;;;;;;;;;;;;;;;;;;4992281;28;902;-63
2022/05/31 04:10:08;;;;;;;;;;;;;;;;;;4992499;28;992;-63
2022/05/31 04:12:34;;;;;;;;;;;;;;;;;;4991896;28;1957;-63
2022/05/31 04:14:59;;;;;;;;;;;;;;;;;;4990948;28;1292;-63
2022/05/31 04:17:24;;;;;;;;;;;;;;;;;;4992257;28;947;-63
2022/05/31 04:19:50;;;;;;;;;;;;;;;;;;4992642;28;1046;-63
2022/05/31 04:22:15;;;;;;;;;;;;;;;;;;4992571;28;896;-63
2022/05/31 04:24:40;;;;;;;;;;;;;;;;;;4992252;28;1035;-62
2022/05/31 04:27:06;;;;;;;;;;;;;;;;;;4992520;28;995;-63
2022/05/31 04:29:31;;;;;;;;;;;;;;;;;;4992632;28;893;-62
2022/05/31 04:31:57;;;;;;;;;;;;;;;;;;4991426;28;1898;-63
2022/05/31 04:34:22;;;;;;;;;;;;;;;;;;4992107;28;858;-63
2022/05/31 04:36:47;;;;;;;;;;;;;;;;;;4992343;28;885;-63
2022/05/31 04:39:12;;;;;;;;;;;;;;;;;;4992103;28;885;-63
2022/05/31 04:41:38;;;;;;;;;;;;;;;;;;4992583;28;884;-63
2022/05/31 04:44:04;;;;;;;;;;;;;;;;;;4991815;28;941;-63
2022/05/31 04:46:30;;;;;;;;;;;;;;;;;;4991642;28;908;-63
2022/05/31 04:48:57;;;;;;;;;;;;;;;;;;5009618;28;1488;-63
2022/05/31 04:51:22;;;;;;;;;;;;;;;;;;5011470;28;1970;-63
2022/05/31 04:53:48;;;;;;;;;;;;;;;;;;5011296;28;846;-63
2022/05/31 04:56:17;;;;;;;;;;;;;;;;;;5010987;28;1000;-63
2022/05/31 04:58:42;;;;;;;;;;;;;;;;;;5010045;28;897;-63
2022/05/31 05:01:07;;;;;;;;;;;;;;;;;;5009514;28;1048;-63
2022/05/31 05:03:34;;;;;;;;;;;;;;;;;;5010195;28;837;-63
2022/05/31 05:06:00;;;;;;;;;;;;;;;;;;5010784;28;827;-63
2022/05/31 05:08:26;;;;;;;;;;;;;;;;;;5010785;28;1063;-63
2022/05/31 05:10:51;;;;;;;;;;;;;;;;;;5010686;28;822;-63
2022/05/31 05:13:16;;;;;;;;;;;;;;;;;;5010954;28;1906;-64
2022/05/31 05:15:42;;;;;;;;;;;;;;;;;;5010842;28;954;-63
2022/05/31 05:18:08;;;;;;;;;;;;;;;;;;5011903;28;977;-63
2022/05/31 05:20:35;;;;;;;;;;;;;;;;;;5011072;28;842;-64
2022/05/31 05:23:02;;;;;;;;;;;;;;;;;;5011137;28;810;-63
2022/05/31 05:25:27;;;;;;;;;;;;;;;;;;5011510;28;997;-63
2022/05/31 05:27:52;;;;;;;;;;;;;;;;;;5011219;28;837;-64
2022/05/31 05:33:01;;;;;;;;;;;;;;;;;;5011228;28;1898;-63
2022/05/31 05:35:27;;;;;;;;;;;;;;;;;;5011107;28;918;-63
2022/05/31 05:37:52;;;;;;;;;;;;;;;;;;5011179;28;954;-65
2022/05/31 05:40:17;;;;;;;;;;;;;;;;;;5011147;28;1145;-64
2022/05/31 05:42:42;;;;;;;;;;;;;;;;;;5011236;28;901;-64
2022/05/31 05:45:10;;;;;;;;;;;;;;;;;;4997659;28;779;-63
2022/05/31 05:47:35;;;;;;;;;;;;;;;;;;5015170;28;1297;-63
2022/05/31 05:50:00;;;;;;;;;;;;;;;;;;5014989;28;1019;-63
2022/05/31 05:52:26;;;;;;;;;;;;;;;;;;5014721;28;1894;-64
2022/05/31 05:54:51;;;;;;;;;;;;;;;;;;5014620;28;992;-63
2022/05/31 05:57:16;;;;;;;;;;;;;;;;;;5014926;28;829;-63
2022/05/31 05:59:42;;;;;;;;;;;;;;;;;;4996654;28;759;-63
2022/05/31 06:02:22;;;;;;;;;;;;;;;;;;5014913;28;853;-63
2022/05/31 06:04:52;;;;;;;;;;;;;;;;;;5014503;28;782;-64
2022/05/31 06:07:20;;;;;;;;;;;;;;;;;;5015043;28;942;-63
2022/05/31 06:09:50;;;;;;;;;;;;;;;;;;5014303;28;825;-63
2022/05/31 06:12:18;;;;;;;;;;;;;;;;;;5014682;28;1965;-63
2022/05/31 06:14:50;;;;;;;;;;;;;;;;;;5014379;28;782;-63
2022/05/31 06:17:21;;;;;;;;;;;;;;;;;;5014750;28;836;-63
2022/05/31 06:19:48;;;;;;;;;;;;;;;;;;5014031;28;861;-63
2022/05/31 06:22:13;;;;;;;;;;;;;;;;;;5014085;28;901;-63
2022/05/31 06:24:39;;;;;;;;;;;;;;;;;;5013552;28;945;-64
2022/05/31 06:27:05;;;;;;;;;;;;;;;;;;5013640;28;904;-64
2022/05/31 06:29:30;;;;;;;;;;;;;;;;;;5013583;28;841;-63
2022/05/31 06:31:55;;;;;;;;;;;;;;;;;;5012926;28;1983;-63
2022/05/31 06:34:21;;;;;;;;;;;;;;;;;;5013530;28;916;-64
2022/05/31 06:36:46;;;;;;;;;;;;;;;;;;5012654;28;837;-64
2022/05/31 06:39:11;;;;;;;;;;;;;;;;;;5013186;28;951;-64
2022/05/31 06:41:37;;;;;;;;;;;;;;;;;;5013480;28;778;-64
2022/05/31 06:44:02;;;;;;;;;;;;;;;;;;5013263;28;996;-66
2022/05/31 06:46:29;;;;;;;;;;;;;;;;;;5013136;28;756;-64
2022/05/31 06:48:54;;;;;;;;;;;;;;;;;;5012527;28;1241;-64
2022/05/31 06:56:50;;;;;;;;;;;;;;;;;;5013241;28;587;-64
2022/05/31 06:59:15;;;;;;;;;;;;;;;;;;5013277;28;861;-64
2022/05/31 07:01:40;;;;;;;;;;;;;;;;;;4994983;28;842;-64
2022/05/31 07:04:06;;;;;;;;;;;;;;;;;;4994864;28;1128;-65
2022/05/31 07:06:32;;;;;;;;;;;;;;;;;;5012562;28;841;-64
2022/05/31 07:08:57;;;;;;;;;;;;;;;;;;5012724;28;763;-64
2022/05/31 07:11:23;;;;;;;;;;;;;;;;;;5013155;28;1895;-64
2022/05/31 07:13:48;;;;;;;;;;;;;;;;;;5012455;28;1083;-65
2022/05/31 07:16:14;;;;;;;;;;;;;;;;;;5012620;28;861;-64
2022/05/31 07:18:39;;;;;;;;;;;;;;;;;;5012333;28;897;-64
2022/05/31 07:21:04;;;;;;;;;;;;;;;;;;5012367;28;833;-64
2022/05/31 07:23:30;;;;;;;;;;;;;;;;;;5012128;28;981;-65
2022/05/31 07:25:55;;;;;;;;;;;;;;;;;;4994572;28;993;-65
2022/05/31 07:28:20;;;;;;;;;;;;;;;;;;5012012;28;794;-64
2022/05/31 07:30:45;;;;;;;;;;;;;;;;;;5011982;28;932;-64
2022/05/31 07:33:12;;;;;;;;;;;;;;;;;;5012858;28;1906;-64
2022/05/31 07:35:41;;;;;;;;;;;;;;;;;;5012389;28;852;-65
2022/05/31 07:38:06;;;;;;;;;;;;;;;;;;4994954;28;1309;-64
2022/05/31 07:40:32;;;;;;;;;;;;;;;;;;5012101;28;885;-64
2022/05/31 07:42:57;;;;;;;;;;;;;;;;;;4994644;28;865;-64
2022/05/31 07:45:23;;;;;;;;;;;;;;;;;;5012259;28;797;-64
2022/05/31 07:47:49;;;;;;;;;;;;;;;;;;5011724;28;1188;-64
2022/05/31 07:50:14;;;;;;;;;;;;;;;;;;4994750;28;1655;-64
2022/05/31 07:52:39;;;;;;;;;;;;;;;;;;5011532;28;1984;-64
2022/05/31 07:55:05;;;;;;;;;;;;;;;;;;5012065;28;833;-64
2022/05/31 08:00:14;;;;;;;;;;;;;;;;;;5011762;28;672;-64
2022/05/31 08:02:39;;;;;;;;;;;;;;;;;;5011354;28;940;-64
2022/05/31 08:05:04;;;;;;;;;;;;;;;;;;5011208;28;884;-64
2022/05/31 08:07:30;;;;;;;;;;;;;;;;;;5011542;28;826;-64
2022/05/31 08:09:55;;;;;;;;;;;;;;;;;;5011469;28;869;-64
2022/05/31 08:12:21;;;;;;;;;;;;;;;;;;5011791;28;1894;-64
2022/05/31 08:14:46;;;;;;;;;;;;;;;;;;5011135;28;889;-64
2022/05/31 08:17:11;;;;;;;;;;;;;;;;;;5011586;28;1043;-64
2022/05/31 08:19:37;;;;;;;;;;;;;;;;;;5011795;28;881;-64
2022/05/31 08:22:02;;;;;;;;;;;;;;;;;;5011114;28;1000;-64
2022/05/31 08:24:28;;;;;;;;;;;;;;;;;;5011132;28;987;-64
2022/05/31 08:26:55;;;;;;;;;;;;;;;;;;5010581;28;845;-64
2022/05/31 08:29:20;;;;;;;;;;;;;;;;;;5011163;28;814;-64
2022/05/31 08:31:45;;;;;;;;;;;;;;;;;;5010459;28;1914;-64
2022/05/31 08:34:11;;;;;;;;;;;;;;;;;;5011385;28;1051;-63
2022/05/31 08:36:37;;;;;;;;;;;;;;;;;;5011299;28;946;-63
2022/05/31 08:39:02;;;;;;;;;;;;;;;;;;5010893;28;991;-64
2022/05/31 08:41:27;;;;;;;;;;;;;;;;;;4994144;28;963;-63
2022/05/31 08:44:12;;;;;;;;;;;;;;;;;;5011218;28;790;-62
2022/05/31 08:46:58;;;;;;;;;;;;;;;;;;5012302;28;884;-63
2022/05/31 08:51:52;;;;;;;;;;;;;;;;;;5011619;28;1275;-63
2022/05/31 08:52:23;;;;;;;;;;;;;;;;;;5011792;28;1914;-63
2022/05/31 08:57:40;;;;;;;;;;;;;;;;;;5011993;28;652;-63
2022/05/31 09:00:11;;;;;;;;;;;;;;;;;;5011433;28;895;-64
2022/05/31 09:02:47;;;;;;;;;;;;;;;;;;5012571;28;846;-63
2022/05/31 09:05:19;;;;;;;;;;;;;;;;;;5012443;28;822;-63
2022/05/31 09:07:46;;;;;;;;;;;;;;;;;;5011863;28;885;-64
2022/05/31 09:10:19;;;;;;;;;;;;;;;;;;5012833;28;853;-63
2022/05/31 09:12:49;;;;;;;;;;;;;;;;;;5012294;28;1965;-64
2022/05/31 09:15:18;;;;;;;;;;;;;;;;;;4995071;28;1352;-64
2022/05/31 09:18:03;;;;;;;;;;;;;;;;;;5013329;28;865;-63
2022/05/31 09:20:40;;;;;;;;;;;;;;;;;;5016482;28;920;-64
2022/05/31 09:23:06;;;;;;;;;;;;;;;;;;5015600;28;825;-64
2022/05/31 09:25:39;;;;;;;;;;;;;;;;;;5015384;28;907;-64
2022/05/31 09:28:09;;;;;;;;;;;;;;;;;;5015445;28;857;-64
2022/05/31 09:30:39;;;;;;;;;;;;;;;;;;5015431;28;821;-63
2022/05/31 09:33:21;;;;;;;;;;;;;;;;;;5014810;28;1906;-64
2022/05/31 09:35:55;;;;;;;;;;;;;;;;;;5015000;28;935;-64
2022/05/31 09:38:30;;;;;;;;;;;;;;;;;;5015174;28;1004;-64
2022/05/31 09:41:06;;;;;;;;;;;;;;;;;;5014430;28;812;-64
2022/05/31 09:43:41;;;;;;;;;;;;;;;;;;5014595;28;876;-64
2022/05/31 09:46:06;;;;;;;;;;;;;;;;;;5014449;28;750;-64
2022/05/31 09:48:32;;;;;;;;;;;;;;;;;;5014205;28;1069;-63
2022/05/31 09:51:16;;;;;;;;;;;;;;;;;;5014107;28;822;-64
2022/05/31 09:59:12;;;;;;;;;;;;;;;;;;5014002;28;615;-64
2022/05/31 10:01:41;;;;;;;;;;;;;;;;;;5014528;28;830;-63
2022/05/31 10:04:08;;;;;;;;;;;;;;;;;;5014150;28;932;-64
2022/05/31 10:06:34;;;;;;;;;;;;;;;;;;5014380;28;813;-64
2022/05/31 10:09:18;;;;;;;;;;;;;;;;;;5013505;28;988;-66
2022/05/31 10:11:48;;;;;;;;;;;;;;;;;;5014096;28;1894;-64
2022/05/31 10:14:22;;;;;;;;;;;;;;;;;;4997249;28;869;-63
2022/05/31 10:16:49;;;;;;;;;;;;;;;;;;5013675;28;945;-64
2022/05/31 10:19:22;;;;;;;;;;;;;;;;;;5014162;28;826;-63
2022/05/31 10:21:48;;;;;;;;;;;;;;;;;;5014048;28;1289;-64
2022/05/31 10:24:15;;;;;;;;;;;;;;;;;;5014026;28;970;-63
2022/05/31 10:26:41;;;;;;;;;;;;;;;;;;5014490;28;897;-64
2022/05/31 10:29:16;;;;;;;;;;;;;;;;;;5013799;28;849;-64
2022/05/31 10:31:44;;;;;;;;;;;;;;;;;;5013607;28;1953;-63
2022/05/31 10:34:27;;;;;;;;;;;;;;;;;;5013311;28;948;-64
2022/05/31 10:36:57;;;;;;;;;;;;;;;;;;5012906;28;1031;-64
2022/05/31 10:39:26;;;;;;;;;;;;;;;;;;4996234;28;861;-64
2022/05/31 10:41:52;;;;;;;;;;;;;;;;;;5012632;28;1031;-63
2022/05/31 10:44:20;;;;;;;;;;;;;;;;;;5012849;28;964;-63
2022/05/31 10:46:47;;;;;;;;;;;;;;;;;;5012826;28;1004;-64
2022/05/31 10:49:17;;;;;;;;;;;;;;;;;;5012834;28;1302;-63
2022/05/31 10:51:43;;;;;;;;;;;;;;;;;;5013052;28;1960;-64
2022/05/31 10:54:26;;;;;;;;;;;;;;;;;;5012591;28;956;-63
2022/05/31 10:57:10;;;;;;;;;;;;;;;;;;5012494;28;641;-63
2022/05/31 10:59:41;;;;;;;;;;;;;;;;;;5013569;28;991;-63
2022/05/31 11:02:06;;;;;;;;;;;;;;;;;;4996297;28;802;-64
2022/05/31 11:04:50;;;;;;;;;;;;;;;;;;5013179;28;857;-64
2022/05/31 11:07:28;;;;;;;;;;;;;;;;;;5012948;28;917;-63
2022/05/31 11:13:05;;;;;;;;;;;;;;;;;;5013041;28;1967;-63
2022/05/31 11:15:51;;;;;;;;;;;;;;;;;;5013028;28;992;-63
2022/05/31 11:18:17;;;;;;;;;;;;;;;;;;5012564;28;1052;-64
2022/05/31 11:20:47;;;;;;;;;;;;;;;;;;5012960;28;838;-63
2022/05/31 11:23:12;;;;;;;;;;;;;;;;;;5012651;28;904;-64
2022/05/31 11:25:52;;;;;;;;;;;;;;;;;;5012280;28;1054;-63
2022/05/31 11:28:17;;;;;;;;;;;;;;;;;;5012111;28;905;-64
2022/05/31 11:31:02;;;;;;;;;;;;;;;;;;5012490;28;856;-63
2022/05/31 11:33:46;;;;;;;;;;;;;;;;;;5012082;28;1907;-64
2022/05/31 11:36:30;;;;;;;;;;;;;;;;;;5012207;28;924;-64
2022/05/31 11:39:18;;;;;;;;;;;;;;;;;;5011683;28;849;-63
2022/05/31 11:41:43;;;;;;;;;;;;;;;;;;5001916;28;1654;-63
2022/05/31 11:44:08;;;;;;;;;;;;;;;;;;5010428;28;1161;-64
2022/05/31 11:46:37;;;;;;;;;;;;;;;;;;5011948;28;837;-64
2022/05/31 11:49:03;;;;;;;;;;;;;;;;;;5011638;28;1114;-64
2022/05/31 11:51:34;;;;;;;;;;;;;;;;;;5011816;28;845;-64
2022/05/31 11:54:04;;;;;;;;;;;;;;;;;;5011646;28;830;-64
2022/05/31 11:56:36;;;;;;;;;;;;;;;;;;5011665;28;900;-64
2022/05/31 11:59:12;;;;;;;;;;;;;;;;;;5011869;28;783;-64
2022/05/31 12:01:38;;;;;;;;;;;;;;;;;;5012168;28;865;-64
2022/05/31 12:04:22;;;;;;;;;;;;;;;;;;5011415;28;821;-63
2022/05/31 12:07:05;;;;;;;;;;;;;;;;;;5011450;28;972;-64
2022/05/31 12:09:34;;;;;;;;;;;;;;;;;;5011539;28;892;-64
2022/05/31 12:12:03;;;;;;;;;;;;;;;;;;4993743;28;1907;-64
2022/05/31 12:14:30;;;;;;;;;;;;;;;;;;5011373;28;959;-64
2022/05/31 12:16:56;;;;;;;;;;;;;;;;;;4993597;28;908;-64
2022/05/31 12:19:33;;;;;;;;;;;;;;;;;;5011430;28;1015;-64
2022/05/31 12:22:21;;;;;;;;;;;;;;;;;;5011259;28;862;-64
2022/05/31 12:24:53;;;;;;;;;;;;;;;;;;5011547;28;974;-64
2022/05/31 12:27:22;;;;;;;;;;;;;;;;;;5010927;28;948;-64
2022/05/31 12:29:54;;;;;;;;;;;;;;;;;;5011209;28;790;-70
2022/05/31 12:32:39;;;;;;;;;;;;;;;;;;5011299;28;1969;-70
2022/05/31 12:35:07;;;;;;;;;;;;;;;;;;5011015;28;930;-70
2022/05/31 12:37:52;;;;;;;;;;;;;;;;;;5010308;28;1946;-70
2022/05/31 12:40:41;;;;;;;;;;;;;;;;;;4993522;28;854;-70
2022/05/31 12:43:06;;;;;;;;;;;;;;;;;;5003545;28;2092;-71
2022/05/31 12:45:34;;;;;;;;;;;;;;;;;;5011694;28;810;-70
2022/05/31 12:48:15;;;;;;;;;;;;;;;;;;5011034;28;1204;-70
2022/05/31 12:50:49;;;;;;;;;;;;;;;;;;5011611;28;858;-71
2022/05/31 12:53:22;;;;;;;;;;;;;;;;;;5010579;28;1915;-70
2022/05/31 12:55:51;;;;;;;;;;;;;;;;;;5011258;28;863;-70
2022/05/31 12:58:30;;;;;;;;;;;;;;;;;;5011185;28;818;-70
2022/05/31 13:01:03;;;;;;;;;;;;;;;;;;5010989;28;833;-64
2022/05/31 13:03:34;;;;;;;;;;;;;;;;;;5011044;28;964;-64
2022/05/31 13:06:02;;;;;;;;;;;;;;;;;;5010543;28;891;-64
2022/05/31 13:08:42;;;;;;;;;;;;;;;;;;5010819;28;830;-64
2022/05/31 13:19:41;;;;;;;;;;;;;;;;;;5010536;28;613;-64
2022/05/31 13:22:09;;;;;;;;;;;;;;;;;;4978980;28;941;-64
2022/05/31 13:24:53;;;;;;;;;;;;;;;;;;5010533;28;985;-64
2022/05/31 13:27:22;;;;;;;;;;;;;;;;;;5010682;28;991;-64
2022/05/31 13:30:01;;;;;;;;;;;;;;;;;;5010725;28;783;-64
2022/05/31 13:32:30;;;;;;;;;;;;;;;;;;5010112;28;1906;-64
2022/05/31 13:34:56;;;;;;;;;;;;;;;;;;5010058;28;900;-65
2022/05/31 13:37:21;;;;;;;;;;;;;;;;;;4992915;28;912;-64
2022/05/31 13:39:47;;;;;;;;;;;;;;;;;;5010254;28;954;-64
2022/05/31 13:42:42;;;;;;;;;;;;;;;;;;5010545;28;892;-64
2022/05/31 13:45:09;;;;;;;;;;;;;;;;;;4997455;28;1233;-65
2022/05/31 13:47:37;;;;;;;;;;;;;;;;;;4992417;28;1163;-64
2022/05/31 13:50:05;;;;;;;;;;;;;;;;;;5010602;28;996;-64
2022/05/31 13:52:32;;;;;;;;;;;;;;;;;;5010325;28;1969;-64
2022/05/31 13:55:16;;;;;;;;;;;;;;;;;;5010349;28;908;-63
2022/05/31 13:57:52;;;;;;;;;;;;;;;;;;5010524;28;836;-63
2022/05/31 14:00:30;;;;;;;;;;;;;;;;;;5010767;28;822;-63
2022/05/31 14:03:05;;;;;;;;;;;;;;;;;;5009993;28;813;-63
2022/05/31 14:05:33;;;;;;;;;;;;;;;;;;5013780;28;844;-63
2022/05/31 14:07:59;;;;;;;;;;;;;;;;;;5013202;28;801;-63
2022/05/31 14:10:26;;;;;;;;;;;;;;;;;;5014006;28;869;-63
2022/05/31 14:12:56;;;;;;;;;;;;;;;;;;5013824;28;1894;-63
2022/05/31 14:15:23;;;;;;;;;;;;;;;;;;5014117;28;900;-63
2022/05/31 14:17:48;;;;;;;;;;;;;;;;;;5013798;28;845;-63
2022/05/31 14:20:16;;;;;;;;;;;;;;;;;;5014026;28;1020;-63
2022/05/31 14:22:42;;;;;;;;;;;;;;;;;;5013785;28;1004;-63
2022/05/31 14:25:09;;;;;;;;;;;;;;;;;;5013723;28;1158;-63
2022/05/31 14:27:35;;;;;;;;;;;;;;;;;;5012144;28;1098;-64
2022/05/31 14:30:10;;;;;;;;;;;;;;;;;;5012260;28;1157;-64
2022/05/31 14:32:45;;;;;;;;;;;;;;;;;;5013678;28;1894;-63
2022/05/31 14:35:21;;;;;;;;;;;;;;;;;;5014700;28;882;-63
2022/05/31 14:37:50;;;;;;;;;;;;;;;;;;5013680;28;849;-63
2022/05/31 14:40:31;;;;;;;;;;;;;;;;;;5014209;28;816;-64
2022/05/31 14:43:03;;;;;;;;;;;;;;;;;;5013850;28;809;-63
2022/05/31 14:45:30;;;;;;;;;;;;;;;;;;5013508;28;779;-63
2022/05/31 14:47:56;;;;;;;;;;;;;;;;;;4995129;28;1592;-63
2022/05/31 14:50:27;;;;;;;;;;;;;;;;;;5013400;28;841;-63
2022/05/31 14:52:56;;;;;;;;;;;;;;;;;;4995466;28;1922;-63
2022/05/31 14:55:22;;;;;;;;;;;;;;;;;;5013640;28;1083;-63
2022/05/31 15:00:40;;;;;;;;;;;;;;;;;;5013460;28;700;-63
2022/05/31 15:03:14;;;;;;;;;;;;;;;;;;5012799;28;1176;-63
2022/05/31 15:05:40;;;;;;;;;;;;;;;;;;4995326;28;1148;-70
2022/05/31 15:08:05;;;;;;;;;;;;;;;;;;5013267;28;785;-72
2022/05/31 15:10:31;;;;;;;;;;;;;;;;;;4995318;28;956;-72
2022/05/31 15:21:08;;;;;;;;;;;;;;;;;;5013420;28;608;-72
2022/05/31 15:23:34;;;;;;;;;;;;;;;;;;5012374;28;999;-72
2022/05/31 15:26:02;;;;;;;;;;;;;;;;;;5010748;28;1327;-71
2022/05/31 15:28:28;;;;;;;;;;;;;;;;;;5013431;28;838;-71
2022/05/31 15:30:53;;;;;;;;;;;;;;;;;;5020080;28;880;-71
2022/05/31 15:33:18;;;;;;;;;;;;;;;;;;5018189;28;1973;-71
2022/05/31 15:35:44;;;;;;;;;;;;;;;;;;5021995;28;834;-70
2022/05/31 15:38:12;;;;;;;;;;;;;;;;;;5027224;28;854;-72
2022/05/31 15:40:38;;;;;;;;;;;;;;;;;;5024969;28;1000;-71
2022/05/31 15:43:04;;;;;;;;;;;;;;;;;;5003716;28;857;-71
2022/05/31 15:45:29;;;;;;;;;;;;;;;;;;5029653;28;1090;-72
2022/05/31 15:47:54;;;;;;;;;;;;;;;;;;5031164;28;1216;-72
2022/05/31 15:50:20;;;;;;;;;;;;;;;;;;5026171;28;1126;-72
2022/05/31 15:52:47;;;;;;;;;;;;;;;;;;5019174;28;1906;-71
2022/05/31 15:55:14;;;;;;;;;;;;;;;;;;5019091;28;830;-72
2022/05/31 15:57:41;;;;;;;;;;;;;;;;;;5017602;28;834;-71
2022/05/31 16:00:08;;;;;;;;;;;;;;;;;;5014317;28;892;-71
2022/05/31 16:02:33;;;;;;;;;;;;;;;;;;5013171;28;1252;-71
2022/05/31 16:04:58;;;;;;;;;;;;;;;;;;4995590;28;905;-72
2022/05/31 16:07:25;;;;;;;;;;;;;;;;;;5012295;28;1240;-72
2022/05/31 16:09:52;;;;;;;;;;;;;;;;;;5011011;28;1233;-62
2022/05/31 16:12:19;;;;;;;;;;;;;;;;;;5011275;28;1971;-62
2022/05/31 16:14:45;;;;;;;;;;;;;;;;;;5011378;28;1188;-62
2022/05/31 16:17:10;;;;;;;;;;;;;;;;;;5012377;28;841;-63
2022/05/31 16:19:36;;;;;;;;;;;;;;;;;;5012248;28;1003;-62
2022/05/31 16:22:01;;;;;;;;;;;;;;;;;;5011763;28;822;-63
2022/05/31 16:24:27;;;;;;;;;;;;;;;;;;5012133;28;896;-63
2022/05/31 16:26:53;;;;;;;;;;;;;;;;;;5011460;28;888;-63
2022/05/31 16:29:19;;;;;;;;;;;;;;;;;;5011972;28;854;-63
2022/05/31 16:31:46;;;;;;;;;;;;;;;;;;5011975;28;819;-63
2022/05/31 16:34:15;;;;;;;;;;;;;;;;;;5011696;28;868;-63
2022/05/31 16:36:41;;;;;;;;;;;;;;;;;;5011947;28;853;-63
2022/05/31 16:41:55;;;;;;;;;;;;;;;;;;5011557;28;724;-63
2022/05/31 16:44:20;;;;;;;;;;;;;;;;;;5012107;28;865;-63
2022/05/31 16:46:45;;;;;;;;;;;;;;;;;;4994020;28;870;-63
2022/05/31 16:49:10;;;;;;;;;;;;;;;;;;5011798;28;1212;-63
2022/05/31 16:51:38;;;;;;;;;;;;;;;;;;5011836;28;889;-63
2022/05/31 16:54:05;;;;;;;;;;;;;;;;;;5011061;28;1902;-63
2022/05/31 16:56:37;;;;;;;;;;;;;;;;;;5009619;28;1410;-63
2022/05/31 16:59:02;;;;;;;;;;;;;;;;;;5009844;28;1165;-63
2022/05/31 17:01:28;;;;;;;;;;;;;;;;;;5011982;28;1129;-64
2022/05/31 17:03:55;;;;;;;;;;;;;;;;;;5011161;28;762;-63
2022/05/31 17:14:34;;;;;;;;;;;;;;;;;;5012133;28;644;-66
2022/05/31 17:16:59;;;;;;;;;;;;;;;;;;5011271;28;1059;-63
2022/05/31 17:19:25;;;;;;;;;;;;;;;;;;5011772;28;897;-63
2022/05/31 17:21:50;;;;;;;;;;;;;;;;;;4993254;28;896;-63
2022/05/31 17:24:16;;;;;;;;;;;;;;;;;;5011410;28;902;-63
2022/05/31 17:26:41;;;;;;;;;;;;;;;;;;5011467;28;889;-63
2022/05/31 17:29:07;;;;;;;;;;;;;;;;;;4993548;28;983;-66
2022/05/31 17:31:33;;;;;;;;;;;;;;;;;;5011615;28;896;-64
2022/05/31 17:33:59;;;;;;;;;;;;;;;;;;4992898;28;1875;-63
2022/05/31 17:36:24;;;;;;;;;;;;;;;;;;5009185;28;1549;-63
2022/05/31 17:39:02;;;;;;;;;;;;;;;;;;5009185;28;1594;-63
2022/05/31 17:41:27;;;;;;;;;;;;;;;;;;5011768;28;1089;-63
2022/05/31 17:43:54;;;;;;;;;;;;;;;;;;5014529;28;903;-63
2022/05/31 17:46:20;;;;;;;;;;;;;;;;;;5015335;28;957;-62
2022/05/31 17:48:45;;;;;;;;;;;;;;;;;;5014954;28;1252;-63
2022/05/31 17:51:11;;;;;;;;;;;;;;;;;;5013452;28;900;-62
2022/05/31 17:53:36;;;;;;;;;;;;;;;;;;5015002;28;1910;-62
2022/05/31 17:56:02;;;;;;;;;;;;;;;;;;5012474;28;1574;-63
2022/05/31 17:58:28;;;;;;;;;;;;;;;;;;5013606;28;1158;-62
2022/05/31 18:00:54;;;;;;;;;;;;;;;;;;5012814;28;1280;-63
2022/05/31 18:03:19;;;;;;;;;;;;;;;;;;5012929;28;1805;-63
2022/05/31 18:05:46;;;;;;;;;;;;;;;;;;5009046;28;1266;-63
2022/05/31 18:08:12;;;;;;;;;;;;;;;;;;5009354;28;1399;-62
2022/05/31 18:10:37;;;;;;;;;;;;;;;;;;5009080;28;1398;-62
2022/05/31 18:13:02;;;;;;;;;;;;;;;;;;5012423;28;1961;-63
2022/05/31 18:15:28;;;;;;;;;;;;;;;;;;4996482;28;822;-63
2022/05/31 18:17:53;;;;;;;;;;;;;;;;;;5013448;28;1395;-63